Natures Way Challenger — WDF7294 — position and weather

sailwx.info

Track history (hours):
 
Tides and Currents Weather Stations Pressure Air Temp Water Temp Dewpoint Dewpoint Depression Visibility Wind Speed Wind Dir Waves Ship Positions

Natures Way Challenger

Owner: Natures Way Marine, LLC, Theodore, AL. More information available from US FCC via Universal Licensing System and Coast Guard Vessel Documentation Center.

Last reported at 2015-Aug-31 00:33 UTC. Time now 2015-Sep-01 14:13 UTC.
Position N 29°32' W 090°49'.

Length 14 m.

Type: Towing. MMSI: 367483050.

Date/timePositionNaut miles runAvg speedWind from/ knotsBaromVisibWave heightAir tempDewpointWater temp
2015-Aug-31 00:33N 29°32' W 090°49'4 4.4
2015-Aug-30 23:33N 29°34' W 090°45'4 4.0
2015-Aug-30 22:33N 29°37' W 090°42'3 2.8
2015-Aug-30 21:33N 29°36' W 090°39'4 4.2
2015-Aug-30 20:33N 29°34' W 090°34'37 1.9
2015-Aug-30 01:32N 29°57' W 090°00'5 5.2
2015-Aug-30 00:31N 29°55' W 090°06'3 0.4
2015-Aug-29 16:20N 29°57' W 090°08'4 4.6
2015-Aug-29 15:33N 29°55' W 090°05'1 1.2
2015-Aug-29 14:29N 29°53' W 090°05'16 0.5
2015-Aug-28 06:31N 29°57' W 090°23'24 0.6
2015-Aug-26 13:31N 29°34' W 090°30'3 3.5
2015-Aug-26 12:33N 29°34' W 090°34'3 3.3
2015-Aug-26 11:33N 29°35' W 090°38'3 3.2
2015-Aug-26 10:33N 29°36' W 090°41'2 2.3
2015-Aug-26 09:33N 29°35' W 090°43'2 2.3
2015-Aug-26 08:33N 29°33' W 090°45'0 0.0
2015-Aug-26 07:33N 29°33' W 090°45'0 0.1
2015-Aug-26 06:33N 29°33' W 090°45'0 0.1
2015-Aug-26 05:33N 29°33' W 090°45'1 1.2
2015-Aug-26 04:33N 29°32' W 090°46'4 4.0
2015-Aug-26 03:30N 29°32' W 090°51'5 3.8
2015-Aug-26 02:17N 29°34' W 090°56'3 3.7
2015-Aug-26 01:31N 29°35' W 090°58'  
2015-Aug-22 12:32N 29°32' W 094°54'4 3.8
2015-Aug-22 11:33N 29°35' W 094°57'4 3.9
2015-Aug-22 10:30N 29°39' W 094°58'4 3.8
2015-Aug-22 09:33N 29°42' W 095°01'6 2.8
2015-Aug-22 07:33N 29°44' W 095°07'3 0.3
2015-Aug-21 22:25N 29°45' W 095°10'4 0.6
2015-Aug-21 15:33N 29°45' W 095°06'1 0.1
2015-Aug-21 05:20N 29°46' W 095°06'1 1.6
2015-Aug-21 04:31N 29°46' W 095°05'3 2.6
2015-Aug-21 03:33N 29°44' W 095°03'3 3.0
2015-Aug-21 02:33N 29°42' W 095°00'3 3.2
2015-Aug-21 01:33N 29°39' W 094°58'4 3.6
2015-Aug-21 00:33N 29°36' W 094°57'  
Track history (hours):
 
Tides and Currents Weather Stations Pressure Air Temp Water Temp Dewpoint Dewpoint Depression Visibility Wind Speed Wind Dir Waves Ship Positions

Natures Way Challenger

Owner: Natures Way Marine, LLC, Theodore, AL. More information available from US FCC via Universal Licensing System and Coast Guard Vessel Documentation Center.

Last reported at 2015-Aug-31 00:33 UTC. Time now 2015-Sep-01 14:13 UTC.
Position N 29°32' W 090°49'.

Length 14 m.

Type: Towing. MMSI: 367483050.

Date/timePositionNaut miles runAvg speedWind from/ knotsBaromVisibWave heightAir tempDewpointWater temp
2015-Aug-31 00:33N 29°32' W 090°49'4 4.4
2015-Aug-30 23:33N 29°34' W 090°45'4 4.0
2015-Aug-30 22:33N 29°37' W 090°42'3 2.8
2015-Aug-30 21:33N 29°36' W 090°39'4 4.2
2015-Aug-30 20:33N 29°34' W 090°34'37 1.9
2015-Aug-30 01:32N 29°57' W 090°00'5 5.2
2015-Aug-30 00:31N 29°55' W 090°06'3 0.4
2015-Aug-29 16:20N 29°57' W 090°08'4 4.6
2015-Aug-29 15:33N 29°55' W 090°05'1 1.2
2015-Aug-29 14:29N 29°53' W 090°05'16 0.5
2015-Aug-28 06:31N 29°57' W 090°23'24 0.6
2015-Aug-26 13:31N 29°34' W 090°30'3 3.5
2015-Aug-26 12:33N 29°34' W 090°34'3 3.3
2015-Aug-26 11:33N 29°35' W 090°38'3 3.2
2015-Aug-26 10:33N 29°36' W 090°41'2 2.3
2015-Aug-26 09:33N 29°35' W 090°43'2 2.3
2015-Aug-26 08:33N 29°33' W 090°45'0 0.0
2015-Aug-26 07:33N 29°33' W 090°45'0 0.1
2015-Aug-26 06:33N 29°33' W 090°45'0 0.1
2015-Aug-26 05:33N 29°33' W 090°45'1 1.2
2015-Aug-26 04:33N 29°32' W 090°46'4 4.0
2015-Aug-26 03:30N 29°32' W 090°51'5 3.8
2015-Aug-26 02:17N 29°34' W 090°56'3 3.7
2015-Aug-26 01:31N 29°35' W 090°58'  
2015-Aug-22 12:32N 29°32' W 094°54'4 3.8
2015-Aug-22 11:33N 29°35' W 094°57'4 3.9
2015-Aug-22 10:30N 29°39' W 094°58'4 3.8
2015-Aug-22 09:33N 29°42' W 095°01'6 2.8
2015-Aug-22 07:33N 29°44' W 095°07'3 0.3
2015-Aug-21 22:25N 29°45' W 095°10'4 0.6
2015-Aug-21 15:33N 29°45' W 095°06'1 0.1
2015-Aug-21 05:20N 29°46' W 095°06'1 1.6
2015-Aug-21 04:31N 29°46' W 095°05'3 2.6
2015-Aug-21 03:33N 29°44' W 095°03'3 3.0
2015-Aug-21 02:33N 29°42' W 095°00'3 3.2
2015-Aug-21 01:33N 29°39' W 094°58'4 3.6
2015-Aug-21 00:33N 29°36' W 094°57'  

Dump ship's entire track history